Harker Heights, Texas
Current Conditions -  °F | °C
As of 5:35 PM on Saturday 25 Oct 2014 (Local Time) from KILE Reporting Station
Clear Clear  
Wind Chill: 88°   Ceiling: Unl
Heat Index: 88°   Visibility: 10mi
Dew Point: 57°   Wind: 10mph
Humidity: 35%   Direction: 150°SSE
Pressure: 30.07"   Gusts: NA
Location:  31.09°N, 97.66°W
Report Text: KILE 252235Z AUTO 15009KT 10SM CLR 31/14 A3007 RMK AO1
Loading
Personal Weather Stations






























Interactive Weather Map
Tropical Storm Tracking
New forecast layout! Learn more

10-Day Weather Forecast

Advertisements
Track Severe Weather on mobile